Time;durP1;ratioP1;P1;durP2;ratioP2;P2;SDS_P1;SDS_P2;PMS_P1;PMS_P2;Temp;Humidity;BMP_temperature;BMP_pressure;BME280_temperature;BME280_humidity;BME280_pressure;Samples;Min_cycle;Max_cycle;Signal;HPM_P1;HPM_P2
2022/03/18 00:01:21;;;;;;;;;;;6.00;88.20;;;;;;5103176;28;20219;-80
2022/03/18 00:03:46;;;;;;;;;;;6.00;88.10;;;;;;5085208;28;19908;-78
2022/03/18 00:06:16;;;;;;;;;;;6.00;88.20;;;;;;5103414;28;20603;-79
2022/03/18 00:08:41;;;;;;;;;;;6.00;88.20;;;;;;5102298;28;19957;-79
2022/03/18 00:11:08;;;;;;;;;;;6.00;87.80;;;;;;5103362;28;20196;-79
2022/03/18 00:13:33;;;;;;;;;;;6.00;87.80;;;;;;5104211;28;19911;-79
2022/03/18 00:16:00;;;;;;;;;;;5.90;88.50;;;;;;5090217;28;20040;-79
2022/03/18 00:18:26;;;;;;;;;;;5.90;88.40;;;;;;5090938;28;19907;-79
2022/03/18 00:20:51;;;;;;;;;;;4.10;87.40;;;;;;5103299;28;20506;-79
2022/03/18 00:23:17;;;;;;;;;;;5.90;88.20;;;;;;5102810;28;20143;-79
2022/03/18 00:25:42;;;;;;;;;;;5.90;87.70;;;;;;5084227;28;20381;-79
2022/03/18 00:28:08;;;;;;;;;;;5.90;88.00;;;;;;5083433;28;20160;-79
2022/03/18 00:30:34;;;;;;;;;;;5.90;87.90;;;;;;5084259;28;19908;-79
2022/03/18 00:32:59;;;;;;;;;;;4.40;87.50;;;;;;5103743;28;19915;-79
2022/03/18 00:35:25;;;;;;;;;;;5.90;88.60;;;;;;5103272;28;19908;-79
2022/03/18 00:37:50;;;;;;;;;;;5.90;88.50;;;;;;5102882;28;19908;-79
2022/03/18 00:40:16;;;;;;;;;;;5.90;88.50;;;;;;5102476;28;19931;-79
2022/03/18 00:42:42;;;;;;;;;;;5.90;88.30;;;;;;5103594;28;20020;-79
2022/03/18 00:45:07;;;;;;;;;;;5.90;88.50;;;;;;5103385;28;19919;-79
2022/03/18 00:53:13;;;;;;;;;;;5.80;88.40;;;;;;5029929;28;20343;-79
2022/03/18 00:55:39;;;;;;;;;;;5.90;88.20;;;;;;5030441;28;20229;-80
2022/03/18 00:58:04;;;;;;;;;;;5.90;87.90;;;;;;5031460;28;20502;-79
2022/03/18 01:00:30;;;;;;;;;;;5.90;88.30;;;;;;5037255;28;19910;-78
2022/03/18 01:02:55;;;;;;;;;;;5.90;88.30;;;;;;5036857;28;19923;-79
2022/03/18 01:05:21;;;;;;;;;;;6.00;88.00;;;;;;5003885;28;19909;-79
2022/03/18 01:07:47;;;;;;;;;;;5.90;87.80;;;;;;5003667;28;20395;-79
2022/03/18 01:10:16;;;;;;;;;;;5.90;88.50;;;;;;5019645;28;20073;-79
2022/03/18 01:12:41;;;;;;;;;;;5.80;88.20;;;;;;5020329;28;19967;-79
2022/03/18 01:15:07;;;;;;;;;;;5.80;88.30;;;;;;5020120;28;19956;-79
2022/03/18 01:17:33;;;;;;;;;;;5.80;88.50;;;;;;5002457;28;20419;-79
2022/03/18 01:19:58;;;;;;;;;;;5.70;88.70;;;;;;5018743;28;20431;-79
2022/03/18 01:22:24;;;;;;;;;;;5.70;88.60;;;;;;5019484;28;19917;-79
2022/03/18 01:24:49;;;;;;;;;;;5.70;88.90;;;;;;5002483;28;19909;-79
2022/03/18 01:27:15;;;;;;;;;;;5.60;89.10;;;;;;5072555;28;20522;-79
2022/03/18 01:29:42;;;;;;;;;;;5.50;89.30;;;;;;5103406;28;20382;-79
2022/03/18 01:32:09;;;;;;;;;;;5.50;90.00;;;;;;5102859;28;19908;-79
2022/03/18 01:34:34;;;;;;;;;;;5.50;89.50;;;;;;5084521;28;19908;-79
2022/03/18 01:37:00;;;;;;;;;;;5.50;89.80;;;;;;5103453;28;19934;-79
2022/03/18 01:39:25;;;;;;;;;;;5.50;89.60;;;;;;5085388;28;20105;-79
2022/03/18 01:41:51;;;;;;;;;;;5.50;89.20;;;;;;5108191;28;19917;-79
2022/03/18 01:44:17;;;;;;;;;;;5.50;89.20;;;;;;5106678;28;19923;-79
2022/03/18 01:46:43;;;;;;;;;;;5.50;88.80;;;;;;5106646;27;19928;-79
2022/03/18 01:49:08;;;;;;;;;;;5.60;89.20;;;;;;5107506;28;19968;-79
2022/03/18 01:51:35;;;;;;;;;;;5.50;89.20;;;;;;5107332;28;19948;-79
2022/03/18 01:56:44;;;;;;;;;;;5.50;89.40;;;;;;5107165;28;20431;-79
2022/03/18 01:59:15;;;;;;;;;;;5.50;89.30;;;;;;5107316;28;19908;-79
2022/03/18 02:01:41;;;;;;;;;;;5.50;89.30;;;;;;5107774;28;19916;-79
2022/03/18 02:04:07;;;;;;;;;;;5.50;89.60;;;;;;5108238;28;20269;-79
2022/03/18 02:06:33;;;;;;;;;;;5.50;89.50;;;;;;5109339;28;19908;-79
2022/03/18 02:08:58;;;;;;;;;;;5.50;89.30;;;;;;5109949;28;19912;-79
2022/03/18 02:11:25;;;;;;;;;;;5.60;89.30;;;;;;5108735;28;19915;-79
2022/03/18 02:13:57;;;;;;;;;;;5.60;89.30;;;;;;5109370;28;19965;-79
2022/03/18 02:16:23;;;;;;;;;;;5.50;89.80;;;;;;5108850;28;19919;-79
2022/03/18 02:18:49;;;;;;;;;;;5.50;89.90;;;;;;5109630;28;20400;-79
2022/03/18 02:21:14;;;;;;;;;;;5.50;90.00;;;;;;5110687;28;19912;-79
2022/03/18 02:23:41;;;;;;;;;;;5.50;89.80;;;;;;5114911;28;19908;-79
2022/03/18 02:26:07;;;;;;;;;;;5.50;89.90;;;;;;5094937;28;20321;-79
2022/03/18 02:28:32;;;;;;;;;;;4.30;89.40;;;;;;5111822;28;19907;-79
2022/03/18 02:30:58;;;;;;;;;;;5.40;90.00;;;;;;5112822;28;20002;-79
2022/03/18 02:33:24;;;;;;;;;;;5.50;89.70;;;;;;5111110;28;19919;-79
2022/03/18 02:35:55;;;;;;;;;;;5.40;89.80;;;;;;5088142;28;19908;-79
2022/03/18 02:38:21;;;;;;;;;;;5.50;89.30;;;;;;5107420;28;20331;-79
2022/03/18 02:40:47;;;;;;;;;;;6.70;90.10;;;;;;5088227;28;19908;-79
2022/03/18 02:43:12;;;;;;;;;;;5.50;89.40;;;;;;5088471;28;19915;-79
2022/03/18 02:45:38;;;;;;;;;;;5.40;89.90;;;;;;5088752;28;19947;-79
2022/03/18 02:48:04;;;;;;;;;;;5.30;90.10;;;;;;5106885;28;19923;-79
2022/03/18 02:50:30;;;;;;;;;;;5.30;90.30;;;;;;5093391;28;19912;-79
2022/03/18 02:52:55;;;;;;;;;;;5.30;90.40;;;;;;5114282;28;19912;-79
2022/03/18 02:55:21;;;;;;;;;;;5.30;90.40;;;;;;5095318;28;19907;-79
2022/03/18 02:57:46;;;;;;;;;;;5.30;90.80;;;;;;5114379;28;19908;-79
2022/03/18 03:00:13;;;;;;;;;;;5.20;90.60;;;;;;5115057;28;19943;-79
2022/03/18 03:02:38;;;;;;;;;;;5.20;90.60;;;;;;5110145;28;20087;-80
2022/03/18 03:08:01;;;;;;;;;;;4.90;90.80;;;;;;5113467;28;20124;-79
2022/03/18 03:10:28;;;;;;;;;;;5.10;90.80;;;;;;5112203;28;20200;-79
2022/03/18 03:12:57;;;;;;;;;;;5.10;90.80;;;;;;5113092;28;19912;-79
2022/03/18 03:15:22;;;;;;;;;;;5.00;90.80;;;;;;5113960;28;19912;-79
2022/03/18 03:17:48;;;;;;;;;;;5.00;90.90;;;;;;5112688;28;20417;-79
2022/03/18 03:20:15;;;;;;;;;;;5.00;90.90;;;;;;5113542;28;20301;-79
2022/03/18 03:22:42;;;;;;;;;;;5.00;91.00;;;;;;5111728;28;19915;-79
2022/03/18 03:25:08;;;;;;;;;;;4.90;91.20;;;;;;5113594;28;19971;-79
2022/03/18 03:27:33;;;;;;;;;;;4.90;91.30;;;;;;5109346;28;20416;-79
2022/03/18 03:30:00;;;;;;;;;;;4.90;91.30;;;;;;5105768;28;19908;-79
2022/03/18 03:32:27;;;;;;;;;;;4.80;91.40;;;;;;5107852;28;19914;-80
2022/03/18 03:34:54;;;;;;;;;;;4.80;91.40;;;;;;5108152;28;19912;-79
2022/03/18 03:37:20;;;;;;;;;;;4.80;91.50;;;;;;5107695;28;19907;-79
2022/03/18 03:39:45;;;;;;;;;;;4.80;91.60;;;;;;5089367;28;20351;-79
2022/03/18 03:42:11;;;;;;;;;;;4.70;91.70;;;;;;5107779;28;20021;-79
2022/03/18 03:44:37;;;;;;;;;;;4.70;91.80;;;;;;5106714;28;19987;-79
2022/03/18 03:47:02;;;;;;;;;;;4.60;92.00;;;;;;5106836;28;19920;-79
2022/03/18 03:49:28;;;;;;;;;;;4.60;92.00;;;;;;5108014;28;20048;-79
2022/03/18 03:51:53;;;;;;;;;;;4.60;92.10;;;;;;5108432;28;20265;-79
2022/03/18 03:54:19;;;;;;;;;;;4.60;92.40;;;;;;5112006;28;20199;-79
2022/03/18 03:56:45;;;;;;;;;;;4.60;92.40;;;;;;5114439;28;20378;-79
2022/03/18 03:59:10;;;;;;;;;;;4.60;92.50;;;;;;5114421;28;19908;-79
2022/03/18 04:01:36;;;;;;;;;;;4.50;92.50;;;;;;5094733;28;20435;-79
2022/03/18 04:04:04;;;;;;;;;;;4.50;92.60;;;;;;5111071;28;19908;-80
2022/03/18 04:06:30;;;;;;;;;;;4.40;92.60;;;;;;5106443;28;20398;-79
2022/03/18 04:08:56;;;;;;;;;;;4.40;92.80;;;;;;5085016;28;19908;-79
2022/03/18 04:11:21;;;;;;;;;;;4.40;92.80;;;;;;5102798;28;19915;-79
2022/03/18 04:13:47;;;;;;;;;;;4.30;92.80;;;;;;5103086;28;19934;-80
2022/03/18 04:16:12;;;;;;;;;;;4.30;92.90;;;;;;5103037;28;20301;-79
2022/03/18 04:18:38;;;;;;;;;;;4.30;93.10;;;;;;5102596;28;20205;-79
2022/03/18 04:21:04;;;;;;;;;;;4.20;93.20;;;;;;5083738;28;19922;-79
2022/03/18 04:23:29;;;;;;;;;;;4.10;93.30;;;;;;5102016;28;20432;-79
2022/03/18 04:25:55;;;;;;;;;;;4.10;93.30;;;;;;5102341;28;20492;-79
2022/03/18 04:28:20;;;;;;;;;;;4.10;93.50;;;;;;5102389;28;19930;-79
2022/03/18 04:30:46;;;;;;;;;;;4.00;93.50;;;;;;5108736;28;19908;-79
2022/03/18 04:33:11;;;;;;;;;;;3.90;93.60;;;;;;5106108;28;19907;-79
2022/03/18 04:35:37;;;;;;;;;;;3.90;93.70;;;;;;5102247;28;20192;-79
2022/03/18 04:38:02;;;;;;;;;;;3.80;93.80;;;;;;5082991;28;20147;-79
2022/03/18 04:40:28;;;;;;;;;;;3.70;93.80;;;;;;5101977;28;20180;-79
2022/03/18 04:42:54;;;;;;;;;;;3.70;94.00;;;;;;5101334;28;19927;-79
2022/03/18 04:45:20;;;;;;;;;;;3.70;94.10;;;;;;5115911;28;19908;-79
2022/03/18 04:47:46;;;;;;;;;;;3.80;94.20;;;;;;5119127;28;19928;-79
2022/03/18 04:50:12;;;;;;;;;;;3.60;94.30;;;;;;5108615;28;19922;-79
2022/03/18 04:52:37;;;;;;;;;;;3.50;94.30;;;;;;5102185;28;19908;-79
2022/03/18 04:55:05;;;;;;;;;;;3.50;94.30;;;;;;5101403;28;19938;-80
2022/03/18 04:57:31;;;;;;;;;;;3.50;94.30;;;;;;5100686;28;20218;-79
2022/03/18 04:59:57;;;;;;;;;;;3.50;94.40;;;;;;5100308;28;19907;-79
2022/03/18 05:02:24;;;;;;;;;;;3.40;94.40;;;;;;5082136;28;20593;-79
2022/03/18 05:04:50;;;;;;;;;;;3.40;94.50;;;;;;5082136;28;19912;-79
2022/03/18 05:07:16;;;;;;;;;;;3.40;94.50;;;;;;5082578;28;20344;-79
2022/03/18 05:09:42;;;;;;;;;;;3.30;94.60;;;;;;5100882;28;19954;-79
2022/03/18 05:12:09;;;;;;;;;;;3.40;94.60;;;;;;5101065;28;19946;-79
2022/03/18 05:14:35;;;;;;;;;;;3.30;94.60;;;;;;5101429;28;19915;-79
2022/03/18 05:17:01;;;;;;;;;;;3.30;94.80;;;;;;5101404;28;19916;-79
2022/03/18 05:19:27;;;;;;;;;;;3.20;94.80;;;;;;5083178;28;19919;-79
2022/03/18 05:21:55;;;;;;;;;;;3.20;94.90;;;;;;5082563;28;20134;-80
2022/03/18 05:24:20;;;;;;;;;;;3.20;94.90;;;;;;5082522;28;19908;-79
2022/03/18 05:26:47;;;;;;;;;;;3.20;94.90;;;;;;5083316;28;19912;-79
2022/03/18 05:29:16;;;;;;;;;;;3.20;94.90;;;;;;5100592;28;19908;-79
2022/03/18 05:31:42;;;;;;;;;;;3.20;94.80;;;;;;5100872;28;19908;-79
2022/03/18 05:34:07;;;;;;;;;;;3.30;94.90;;;;;;5101277;28;19908;-79
2022/03/18 05:36:33;;;;;;;;;;;3.30;94.90;;;;;;5100967;28;20392;-79
2022/03/18 05:39:00;;;;;;;;;;;3.30;94.80;;;;;;5100818;28;19970;-79
2022/03/18 05:41:25;;;;;;;;;;;3.30;94.80;;;;;;5085477;28;19916;-79
2022/03/18 05:43:51;;;;;;;;;;;3.30;94.80;;;;;;5104543;28;19918;-80
2022/03/18 05:46:17;;;;;;;;;;;3.40;94.90;;;;;;5086362;28;20053;-79
2022/03/18 05:48:45;;;;;;;;;;;3.60;95.00;;;;;;5103020;28;19916;-79
2022/03/18 05:51:11;;;;;;;;;;;3.40;95.00;;;;;;5100953;28;19914;-79
2022/03/18 05:53:37;;;;;;;;;;;3.50;95.00;;;;;;5101069;28;19994;-79
2022/03/18 05:58:48;;;;;;;;;;;3.50;94.90;;;;;;5100521;28;19922;-79
2022/03/18 06:01:14;;;;;;;;;;;3.60;94.90;;;;;;5100379;28;19919;-79
2022/03/18 06:03:40;;;;;;;;;;;3.60;94.90;;;;;;5100856;28;19908;-79
2022/03/18 06:06:06;;;;;;;;;;;3.60;94.70;;;;;;5101383;28;19908;-79
2022/03/18 06:14:09;;;;;;;;;;;3.80;94.40;;;;;;5101153;28;19919;-79
2022/03/18 06:16:37;;;;;;;;;;;3.90;94.30;;;;;;5099884;28;20416;-79
2022/03/18 06:19:03;;;;;;;;;;;4.00;94.30;;;;;;5100135;28;19908;-79
2022/03/18 06:21:28;;;;;;;;;;;3.90;94.20;;;;;;5082207;28;20554;-79
2022/03/18 06:23:54;;;;;;;;;;;4.10;94.00;;;;;;5082212;28;20326;-79
2022/03/18 06:26:20;;;;;;;;;;;4.30;93.70;;;;;;5100139;28;20032;-79
2022/03/18 06:28:45;;;;;;;;;;;4.30;93.50;;;;;;5085945;28;20144;-79
2022/03/18 06:31:11;;;;;;;;;;;4.40;93.50;;;;;;5085878;28;19914;-80
2022/03/18 06:33:41;;;;;;;;;;;4.50;93.10;;;;;;5107569;28;20100;-79
2022/03/18 06:36:08;;;;;;;;;;;4.60;93.30;;;;;;5109248;28;20104;-79
2022/03/18 06:38:33;;;;;;;;;;;4.70;93.10;;;;;;5093545;28;20248;-79
2022/03/18 06:40:59;;;;;;;;;;;4.70;93.00;;;;;;5115173;28;20002;-79
2022/03/18 06:43:26;;;;;;;;;;;4.90;92.80;;;;;;5091806;28;19919;-79
2022/03/18 06:45:51;;;;;;;;;;;5.00;92.50;;;;;;5109765;28;20293;-79
2022/03/18 06:48:17;;;;;;;;;;;5.10;92.10;;;;;;5109362;28;19920;-79
2022/03/18 06:50:42;;;;;;;;;;;5.20;91.60;;;;;;5107607;28;19919;-79
2022/03/18 06:53:08;;;;;;;;;;;5.30;91.40;;;;;;5108178;28;20417;-79
2022/03/18 06:55:35;;;;;;;;;;;5.40;91.10;;;;;;5107097;28;19911;-79
2022/03/18 06:58:01;;;;;;;;;;;5.40;91.10;;;;;;5106607;28;19931;-79
2022/03/18 07:00:27;;;;;;;;;;;5.60;91.10;;;;;;5107611;28;20120;-79
2022/03/18 07:02:53;;;;;;;;;;;5.70;90.30;;;;;;5113140;28;19916;-79
2022/03/18 07:05:19;;;;;;;;;;;5.80;90.10;;;;;;5115769;28;19907;-78
2022/03/18 07:07:44;;;;;;;;;;;5.90;89.10;;;;;;5115146;28;19915;-79
2022/03/18 07:10:12;;;;;;;;;;;6.00;88.70;;;;;;5095561;28;20142;-79
2022/03/18 07:12:38;;;;;;;;;;;6.10;87.60;;;;;;5108448;28;20006;-80
2022/03/18 07:15:04;;;;;;;;;;;6.20;87.30;;;;;;5105308;28;19998;-79
2022/03/18 07:20:14;;;;;;;;;;;6.40;86.50;;;;;;5105466;28;20293;-79
2022/03/18 07:22:40;;;;;;;;;;;6.60;86.20;;;;;;5104190;28;19915;-79
2022/03/18 07:25:06;;;;;;;;;;;6.70;84.90;;;;;;5105015;28;19908;-79
2022/03/18 07:27:32;;;;;;;;;;;6.70;84.50;;;;;;5086851;28;20180;-79
2022/03/18 07:29:58;;;;;;;;;;;6.90;84.60;;;;;;5104626;28;19907;-79
2022/03/18 07:32:23;;;;;;;;;;;7.00;83.20;;;;;;5104307;28;20245;-79
2022/03/18 07:34:49;;;;;;;;;;;7.60;83.30;;;;;;5085797;28;19991;-79
2022/03/18 07:37:14;;;;;;;;;;;7.20;82.30;;;;;;5087066;28;20011;-80
2022/03/18 07:39:40;;;;;;;;;;;7.30;81.10;;;;;;5086552;28;19915;-80
2022/03/18 07:42:06;;;;;;;;;;;7.40;80.10;;;;;;5089462;28;19920;-79
2022/03/18 07:44:36;;;;;;;;;;;7.40;79.80;;;;;;5105489;28;19907;-78
2022/03/18 07:47:02;;;;;;;;;;;7.50;80.50;;;;;;5087593;28;20128;-79
2022/03/18 07:49:29;;;;;;;;;;;7.60;79.10;;;;;;5105936;28;19919;-79
2022/03/18 07:51:54;;;;;;;;;;;7.80;78.60;;;;;;5106402;28;19919;-79
2022/03/18 07:54:20;;;;;;;;;;;8.00;77.80;;;;;;5106294;28;20303;-79
2022/03/18 07:56:45;;;;;;;;;;;8.10;77.40;;;;;;5104877;28;19931;-79
2022/03/18 07:59:14;;;;;;;;;;;8.20;76.40;;;;;;5104145;28;20298;-79
2022/03/18 08:01:43;;;;;;;;;;;8.30;75.60;;;;;;5103447;28;19916;-79
2022/03/18 08:04:12;;;;;;;;;;;8.40;75.30;;;;;;5105603;28;19907;-79
2022/03/18 08:06:37;;;;;;;;;;;8.40;75.90;;;;;;5087829;28;19912;-79
2022/03/18 08:09:03;;;;;;;;;;;8.50;74.90;;;;;;5106413;28;20340;-79
2022/03/18 08:11:29;;;;;;;;;;;8.70;72.80;;;;;;5107018;28;19987;-79
2022/03/18 08:13:54;;;;;;;;;;;8.80;73.50;;;;;;5108478;28;19919;-79
2022/03/18 08:16:22;;;;;;;;;;;8.90;72.70;;;;;;5091377;28;20018;-80
2022/03/18 08:18:48;;;;;;;;;;;8.90;71.80;;;;;;5108984;28;19907;-79
2022/03/18 08:21:16;;;;;;;;;;;9.00;72.70;;;;;;5091979;28;20426;-79
2022/03/18 08:23:42;;;;;;;;;;;9.10;70.50;;;;;;5090156;28;19912;-80
2022/03/18 08:26:08;;;;;;;;;;;9.00;69.00;;;;;;5106883;28;19970;-79
2022/03/18 08:28:33;;;;;;;;;;;9.00;69.40;;;;;;5088901;28;20204;-79
2022/03/18 08:30:59;;;;;;;;;;;9.10;69.50;;;;;;5108586;28;20274;-79
2022/03/18 08:33:26;;;;;;;;;;;9.30;68.30;;;;;;5089973;28;19908;-79
2022/03/18 08:35:51;;;;;;;;;;;9.50;68.80;;;;;;5109646;28;19907;-79
2022/03/18 08:38:17;;;;;;;;;;;9.50;68.00;;;;;;5107769;28;20222;-79
2022/03/18 08:40:43;;;;;;;;;;;9.70;66.50;;;;;;5109204;28;19966;-79
2022/03/18 08:43:09;;;;;;;;;;;9.80;63.60;;;;;;5111290;28;19916;-79
2022/03/18 08:45:35;;;;;;;;;;;9.80;63.80;;;;;;5113993;28;19919;-80
2022/03/18 08:48:02;;;;;;;;;;;9.90;64.00;;;;;;5114006;28;20136;-80
2022/03/18 08:50:28;;;;;;;;;;;9.80;64.70;;;;;;5104785;28;19908;-80
2022/03/18 08:52:54;;;;;;;;;;;9.70;64.50;;;;;;5091773;28;19918;-80
2022/03/18 08:55:21;;;;;;;;;;;9.50;63.50;;;;;;5106372;28;19943;-80
2022/03/18 08:57:46;;;;;;;;;;;9.50;65.40;;;;;;5105444;28;20294;-79
2022/03/18 09:00:14;;;;;;;;;;;9.40;65.80;;;;;;5103935;28;19908;-79
2022/03/18 09:02:41;;;;;;;;;;;9.60;67.80;;;;;;5090521;28;20013;-79
2022/03/18 09:05:07;;;;;;;;;;;9.60;65.20;;;;;;5090377;28;19960;-79
2022/03/18 09:07:33;;;;;;;;;;;9.50;64.70;;;;;;5086927;28;19908;-79
2022/03/18 09:09:59;;;;;;;;;;;9.40;65.00;;;;;;5103150;28;20406;-80
2022/03/18 09:12:25;;;;;;;;;;;9.40;65.30;;;;;;5101140;28;20393;-79
2022/03/18 09:14:50;;;;;;;;;;;9.30;65.90;;;;;;5102033;28;19950;-79
2022/03/18 09:17:16;;;;;;;;;;;9.20;67.40;;;;;;5102951;28;19927;-79
2022/03/18 09:19:42;;;;;;;;;;;9.20;67.90;;;;;;5103146;28;19908;-79
2022/03/18 09:22:08;;;;;;;;;;;9.20;67.10;;;;;;5102650;28;20390;-79
2022/03/18 09:24:35;;;;;;;;;;;9.20;65.70;;;;;;5103518;28;19916;-79
2022/03/18 09:27:00;;;;;;;;;;;9.30;64.30;;;;;;5106157;28;19907;-79
2022/03/18 09:29:26;;;;;;;;;;;9.40;63.40;;;;;;5086211;28;19907;-79
2022/03/18 09:31:52;;;;;;;;;;;9.50;61.30;;;;;;5085267;28;20363;-79
2022/03/18 09:34:22;;;;;;;;;;;9.50;61.80;;;;;;5103253;28;19908;-80
2022/03/18 09:36:48;;;;;;;;;;;9.60;60.50;;;;;;5086702;28;19907;-79
2022/03/18 09:39:14;;;;;;;;;;;9.60;59.80;;;;;;5088031;28;19966;-79
2022/03/18 09:41:39;;;;;;;;;;;9.60;58.90;;;;;;5105422;28;19988;-79
2022/03/18 09:44:05;;;;;;;;;;;9.50;58.30;;;;;;5104491;28;20309;-79
2022/03/18 09:46:31;;;;;;;;;;;10.80;60.40;;;;;;5103928;28;19916;-79
2022/03/18 09:48:58;;;;;;;;;;;9.60;59.50;;;;;;5103857;28;19908;-80
2022/03/18 09:51:24;;;;;;;;;;;9.60;59.00;;;;;;5084860;28;19947;-80
2022/03/18 09:53:50;;;;;;;;;;;9.90;57.90;;;;;;5105101;28;19969;-79
2022/03/18 09:56:15;;;;;;;;;;;10.10;56.50;;;;;;5105195;28;20389;-79
2022/03/18 09:58:41;;;;;;;;;;;10.00;56.60;;;;;;5105554;28;19915;-79
2022/03/18 10:01:06;;;;;;;;;;;10.80;55.10;;;;;;5086227;28;19908;-79
2022/03/18 10:03:40;;;;;;;;;;;11.10;51.70;;;;;;5110917;28;19920;-80
2022/03/18 10:06:06;;;;;;;;;;;11.30;50.70;;;;;;5093605;28;19926;-79
2022/03/18 10:08:39;;;;;;;;;;;11.30;49.60;;;;;;5093359;28;19935;-79
2022/03/18 10:11:15;;;;;;;;;;;11.20;49.90;;;;;;5113809;28;19926;-79
2022/03/18 10:13:50;;;;;;;;;;;11.20;50.60;;;;;;5117346;28;19911;-80
2022/03/18 10:16:21;;;;;;;;;;;11.00;49.60;;;;;;5118480;28;20116;-80
2022/03/18 10:18:49;;;;;;;;;;;10.80;51.50;;;;;;5118323;28;19956;-80
2022/03/18 10:21:18;;;;;;;;;;;10.90;50.30;;;;;;5118415;28;19908;-80
2022/03/18 10:23:46;;;;;;;;;;;10.20;50.30;;;;;;5091569;28;19964;-79
2022/03/18 10:26:13;;;;;;;;;;;11.20;48.90;;;;;;5107599;28;20117;-80
2022/03/18 10:28:41;;;;;;;;;;;11.40;49.70;;;;;;5107598;28;19908;-80
2022/03/18 10:31:15;;;;;;;;;;;11.50;49.00;;;;;;5089572;28;19957;-80
2022/03/18 10:39:35;;;;;;;;;;;12.00;47.60;;;;;;5106035;28;20518;-79
2022/03/18 10:42:03;;;;;;;;;;;12.20;47.90;;;;;;5104349;28;20362;-81
2022/03/18 10:44:31;;;;;;;;;;;12.20;46.90;;;;;;5087031;28;19912;-79
2022/03/18 10:46:57;;;;;;;;;;;12.10;45.80;;;;;;5104873;28;20266;-79
2022/03/18 10:49:27;;;;;;;;;;;11.90;47.40;;;;;;5107113;28;20134;-79
2022/03/18 10:51:52;;;;;;;;;;;12.20;47.30;;;;;;5088346;28;19918;-79
2022/03/18 10:54:24;;;;;;;;;;;12.20;45.60;;;;;;5106964;28;20621;-79
2022/03/18 10:56:58;;;;;;;;;;;12.40;46.20;;;;;;5105918;28;19907;-80
2022/03/18 10:59:26;;;;;;;;;;;12.70;45.70;;;;;;5090075;28;19955;-79
2022/03/18 11:01:51;;;;;;;;;;;12.90;44.50;;;;;;5089839;28;19912;-80
2022/03/18 11:04:17;;;;;;;;;;;13.20;43.90;;;;;;5112117;28;20002;-80
2022/03/18 11:07:29;;;;;;;;;;;13.40;42.90;;;;;;5106797;28;19908;-80
2022/03/18 11:11:06;;;;;;;;;;;13.50;42.30;;;;;;5102678;28;19926;-81
2022/03/18 11:12:17;;;;;;;;;;;12.20;41.50;;;;;;5102746;28;19939;-80
2022/03/18 11:14:43;;;;;;;;;;;13.70;41.80;;;;;;5102776;28;19907;-80
2022/03/18 11:17:09;;;;;;;;;;;13.70;41.40;;;;;;5085024;28;19951;-79
2022/03/18 11:19:35;;;;;;;;;;;13.60;41.80;;;;;;5084534;28;20199;-80
2022/03/18 11:22:03;;;;;;;;;;;13.80;42.00;;;;;;5102360;28;20329;-80
2022/03/18 11:24:30;;;;;;;;;;;14.00;42.00;;;;;;5101378;28;20009;-79
2022/03/18 11:26:56;;;;;;;;;;;14.00;41.20;;;;;;5101764;28;19917;-80
2022/03/18 11:29:24;;;;;;;;;;;13.90;40.80;;;;;;5100934;28;19912;-79
2022/03/18 11:32:08;;;;;;;;;;;13.90;41.50;;;;;;5100892;28;19919;-81
2022/03/18 11:34:43;;;;;;;;;;;14.00;40.80;;;;;;5082013;28;20294;-80
2022/03/18 11:37:09;;;;;;;;;;;16.10;41.80;;;;;;5100197;28;20007;-80
2022/03/18 11:39:35;;;;;;;;;;;14.20;39.60;;;;;;5100305;28;20209;-80
2022/03/18 11:42:05;;;;;;;;;;;14.30;40.80;;;;;;5081540;28;20204;-81
2022/03/18 11:44:37;;;;;;;;;;;14.50;40.80;;;;;;5100078;28;20295;-79
2022/03/18 11:47:21;;;;;;;;;;;14.70;40.40;;;;;;5081356;28;19958;-80
2022/03/18 11:49:47;;;;;;;;;;;15.00;39.00;;;;;;5100874;28;19912;-79
2022/03/18 11:52:13;;;;;;;;;;;15.20;38.60;;;;;;5100721;28;19907;-80
2022/03/18 11:54:55;;;;;;;;;;;15.50;38.50;;;;;;5082567;28;20158;-81
2022/03/18 11:57:33;;;;;;;;;;;15.70;38.80;;;;;;5100268;28;19933;-80
2022/03/18 12:00:05;;;;;;;;;;;16.20;37.50;;;;;;5100767;28;19908;-81
2022/03/18 12:02:32;;;;;;;;;;;16.60;37.10;;;;;;5100424;28;19968;-80
2022/03/18 12:04:58;;;;;;;;;;;16.80;35.00;;;;;;5100040;28;20123;-80
2022/03/18 12:07:29;;;;;;;;;;;17.00;35.60;;;;;;5081413;28;20476;-80
2022/03/18 12:10:01;;;;;;;;;;;17.10;35.80;;;;;;5081426;28;20114;-81
2022/03/18 12:12:28;;;;;;;;;;;17.10;34.80;;;;;;5100044;28;20390;-81
2022/03/18 12:14:55;;;;;;;;;;;16.50;35.70;;;;;;5099891;28;19939;-81
2022/03/18 12:17:21;;;;;;;;;;;16.70;36.30;;;;;;5099230;28;20164;-80
2022/03/18 12:19:49;;;;;;;;;;;16.80;35.10;;;;;;5100126;28;20093;-80
2022/03/18 12:22:15;;;;;;;;;;;16.80;35.10;;;;;;5099841;28;19965;-81
2022/03/18 12:24:40;;;;;;;;;;;16.90;34.40;;;;;;5098685;28;20186;-81
2022/03/18 12:27:06;;;;;;;;;;;17.10;34.50;;;;;;5099891;28;20417;-80
2022/03/18 12:29:31;;;;;;;;;;;17.10;33.90;;;;;;5099702;28;19907;-81
2022/03/18 12:32:01;;;;;;;;;;;17.20;34.90;;;;;;5099992;28;19939;-81
2022/03/18 12:34:27;;;;;;;;;;;17.40;34.70;;;;;;5100134;28;19938;-82
2022/03/18 12:36:52;;;;;;;;;;;17.50;34.30;;;;;;5100295;28;20116;-80
2022/03/18 12:39:18;;;;;;;;;;;17.40;34.80;;;;;;5099838;28;20366;-80
2022/03/18 12:41:46;;;;;;;;;;;17.20;33.80;;;;;;5106085;28;19968;-81
2022/03/18 12:44:11;;;;;;;;;;;17.10;34.10;;;;;;5109912;28;20003;-81
2022/03/18 12:46:38;;;;;;;;;;;16.90;33.10;;;;;;5102637;28;19951;-81
2022/03/18 12:49:09;;;;;;;;;;;16.90;33.50;;;;;;5101906;28;20450;-80
2022/03/18 12:51:35;;;;;;;;;;;16.80;34.30;;;;;;5081823;28;20191;-80
2022/03/18 12:54:01;;;;;;;;;;;16.80;34.80;;;;;;5082119;28;19994;-78
2022/03/18 12:56:30;;;;;;;;;;;16.70;34.60;;;;;;5080156;28;20295;-79
2022/03/18 12:58:57;;;;;;;;;;;16.60;34.80;;;;;;5081192;28;19999;-81
2022/03/18 13:01:23;;;;;;;;;;;16.80;35.00;;;;;;5099259;28;19908;-80
2022/03/18 13:03:51;;;;;;;;;;;16.80;34.70;;;;;;5099299;28;19919;-80
2022/03/18 13:06:22;;;;;;;;;;;16.90;34.70;;;;;;5099350;28;19908;-78
2022/03/18 13:09:03;;;;;;;;;;;17.00;34.30;;;;;;5099207;28;19908;-79
2022/03/18 13:11:33;;;;;;;;;;;17.70;34.40;;;;;;5080567;28;19914;-79
2022/03/18 13:13:58;;;;;;;;;;;16.70;33.80;;;;;;5100880;28;19915;-79
2022/03/18 13:16:34;;;;;;;;;;;16.80;34.70;;;;;;5099934;28;19924;-80
2022/03/18 13:19:02;;;;;;;;;;;17.10;34.10;;;;;;5102389;28;19908;-77
2022/03/18 13:21:37;;;;;;;;;;;17.20;33.70;;;;;;5091096;28;20216;-78
2022/03/18 13:24:03;;;;;;;;;;;16.60;32.50;;;;;;5110110;28;20026;-79
2022/03/18 13:26:29;;;;;;;;;;;17.30;33.80;;;;;;5112838;28;19987;-78
2022/03/18 13:28:55;;;;;;;;;;;17.50;32.60;;;;;;5107144;28;19912;-80
2022/03/18 13:34:04;;;;;;;;;;;17.70;32.90;;;;;;5099642;28;19968;-78
2022/03/18 13:36:37;;;;;;;;;;;17.70;31.60;;;;;;5101041;28;19907;-78
2022/03/18 13:39:07;;;;;;;;;;;17.60;30.70;;;;;;5084931;28;20030;-79
2022/03/18 13:41:48;;;;;;;;;;;17.50;30.90;;;;;;5084815;28;19920;-79
2022/03/18 13:44:14;;;;;;;;;;;17.50;30.00;;;;;;5103349;28;19968;-78
2022/03/18 13:46:40;;;;;;;;;;;17.30;31.00;;;;;;5102726;28;19920;-78
2022/03/18 13:49:10;;;;;;;;;;;17.30;30.70;;;;;;5102551;28;20324;-80
2022/03/18 13:51:37;;;;;;;;;;;17.40;30.70;;;;;;5102654;28;19918;-77
2022/03/18 13:54:10;;;;;;;;;;;17.50;31.80;;;;;;5103030;28;20403;-80
2022/03/18 13:57:00;;;;;;;;;;;17.50;31.10;;;;;;5068041;28;19913;-79
2022/03/18 13:59:27;;;;;;;;;;;17.20;31.50;;;;;;5036064;28;19917;-79
2022/03/18 14:02:08;;;;;;;;;;;16.90;32.10;;;;;;5036099;28;19913;-79
2022/03/18 14:05:00;;;;;;;;;;;17.10;32.00;;;;;;5035572;28;19967;-79
2022/03/18 14:07:42;;;;;;;;;;;17.40;32.40;;;;;;5037374;28;20133;-79
2022/03/18 14:10:07;;;;;;;;;;;17.90;31.50;;;;;;5036197;28;19909;-78
2022/03/18 14:12:33;;;;;;;;;;;17.80;31.50;;;;;;5034550;28;19916;-79
2022/03/18 14:15:17;;;;;;;;;;;17.60;31.60;;;;;;5035964;28;20267;-79
2022/03/18 14:17:58;;;;;;;;;;;17.50;31.80;;;;;;5035628;28;19917;-79
2022/03/18 14:20:26;;;;;;;;;;;17.40;32.40;;;;;;5035554;28;19913;-79
2022/03/18 14:22:53;;;;;;;;;;;17.20;32.40;;;;;;5067086;28;20576;-79
2022/03/18 14:25:18;;;;;;;;;;;17.30;32.90;;;;;;5035205;28;20212;-79
2022/03/18 14:27:48;;;;;;;;;;;17.10;32.90;;;;;;5035323;28;19909;-80
2022/03/18 14:30:17;;;;;;;;;;;17.00;33.20;;;;;;5035580;28;19975;-82
2022/03/18 14:32:44;;;;;;;;;;;16.70;33.90;;;;;;5034020;28;20383;-81
2022/03/18 14:35:09;;;;;;;;;;;16.50;34.00;;;;;;5035514;28;19928;-80
2022/03/18 14:37:35;;;;;;;;;;;16.20;34.20;;;;;;5034150;28;19909;-80
2022/03/18 14:40:03;;;;;;;;;;;15.90;34.60;;;;;;5035306;28;20000;-79
2022/03/18 14:42:28;;;;;;;;;;;15.70;35.30;;;;;;5034201;28;19917;-79
2022/03/18 14:44:56;;;;;;;;;;;15.50;35.60;;;;;;5034224;28;19913;-78
2022/03/18 14:47:21;;;;;;;;;;;15.30;35.90;;;;;;5033804;28;19909;-78
2022/03/18 14:49:47;;;;;;;;;;;15.00;36.40;;;;;;5035483;28;20310;-83
2022/03/18 14:52:13;;;;;;;;;;;14.80;36.80;;;;;;5033616;28;20036;-81
2022/03/18 14:57:23;;;;;;;;;;;14.50;37.20;;;;;;5036150;28;20597;-81
2022/03/18 14:59:49;;;;;;;;;;;14.10;37.10;;;;;;5036088;28;19917;-80